Time;durP1;ratioP1;P1;durP2;ratioP2;P2;SDS_P1;SDS_P2;PMS_P1;PMS_P2;Temp;Humidity;BMP_temperature;BMP_pressure;BME280_temperature;BME280_humidity;BME280_pressure;Samples;Min_cycle;Max_cycle;Signal;HPM_P1;HPM_P2
2021/05/13 07:55:47;;;;;;;8.77;5.63;;;;;;;;;;12886323;23;20179;-86
2021/05/13 08:00:50;;;;;;;11.27;5.63;;;;;;;;;;12907683;23;20318;-85
2021/05/13 08:05:52;;;;;;;11.53;5.90;;;;;;;;;;12919929;23;20416;-85
2021/05/13 08:10:55;;;;;;;9.13;5.00;;;;;;;;;;12901922;23;20175;-80
2021/05/13 08:15:58;;;;;;;9.43;5.10;;;;;;;;;;12898762;23;20175;-80
2021/05/13 08:21:02;;;;;;;7.93;4.90;;;;;;;;;;12884142;23;20532;-81
2021/05/13 08:26:05;;;;;;;7.03;4.63;;;;;;;;;;12904325;23;20393;-79
2021/05/13 08:31:08;;;;;;;8.43;4.83;;;;;;;;;;12881855;23;20204;-79
2021/05/13 08:36:10;;;;;;;8.43;4.77;;;;;;;;;;12883889;23;20262;-81
2021/05/13 08:41:14;;;;;;;9.83;4.53;;;;;;;;;;12884317;23;20298;-79
2021/05/13 08:46:16;;;;;;;7.33;4.40;;;;;;;;;;12883544;23;20179;-80
2021/05/13 08:51:19;;;;;;;9.40;4.80;;;;;;;;;;12882966;23;20181;-79
2021/05/13 08:56:22;;;;;;;7.23;4.10;;;;;;;;;;12903852;23;20541;-78
2021/05/13 09:01:25;;;;;;;7.00;3.53;;;;;;;;;;12902095;23;20206;-80
2021/05/13 09:06:29;;;;;;;7.37;3.87;;;;;;;;;;12906472;23;20179;-79
2021/05/13 09:11:32;;;;;;;10.43;5.37;;;;;;;;;;12881970;23;20258;-79
2021/05/13 09:16:35;;;;;;;11.73;4.90;;;;;;;;;;12903462;23;20412;-81
2021/05/13 09:21:49;;;;;;;9.80;4.07;;;;;;;;;;12882830;23;20305;-79
2021/05/13 09:26:53;;;;;;;10.00;4.30;;;;;;;;;;12905147;23;20174;-78
2021/05/13 09:31:56;;;;;;;7.97;3.63;;;;;;;;;;12879054;23;20557;-79
2021/05/13 09:36:59;;;;;;;8.13;3.60;;;;;;;;;;12902502;23;20230;-79
2021/05/13 09:42:03;;;;;;;6.40;3.20;;;;;;;;;;12880807;23;20206;-79
2021/05/13 09:47:12;;;;;;;8.13;3.03;;;;;;;;;;12879942;23;20244;-78
2021/05/13 09:52:35;;;;;;;6.30;3.03;;;;;;;;;;12884153;23;20258;-79
2021/05/13 09:57:38;;;;;;;6.83;2.70;;;;;;;;;;12902760;23;20189;-79
2021/05/13 10:02:41;;;;;;;9.37;2.80;;;;;;;;;;12901343;23;20195;-79
2021/05/13 10:07:43;;;;;;;5.67;2.60;;;;;;;;;;12900180;23;20179;-78
2021/05/13 10:13:07;;;;;;;5.83;2.40;;;;;;;;;;12882079;23;20178;-79
2021/05/13 10:18:18;;;;;;;5.03;2.57;;;;;;;;;;12899580;23;20197;-79
2021/05/13 10:23:21;;;;;;;7.07;2.90;;;;;;;;;;12905184;23;20683;-79
2021/05/13 10:28:28;;;;;;;4.47;2.50;;;;;;;;;;12900749;23;20589;-80
2021/05/13 10:33:44;;;;;;;7.80;2.70;;;;;;;;;;12900574;23;20202;-82
2021/05/13 10:38:48;;;;;;;6.03;2.53;;;;;;;;;;12901712;23;20210;-78
2021/05/13 10:43:51;;;;;;;6.13;2.33;;;;;;;;;;12881907;23;20194;-79
2021/05/13 10:49:12;;;;;;;7.30;2.70;;;;;;;;;;12898870;23;20548;-79
2021/05/13 10:54:40;;;;;;;8.30;2.63;;;;;;;;;;12904295;23;20167;-79
2021/05/13 11:00:16;;;;;;;8.20;2.57;;;;;;;;;;12878466;23;20556;-79
2021/05/13 11:05:44;;;;;;;5.07;2.77;;;;;;;;;;12902222;23;20203;-79
2021/05/13 11:10:58;;;;;;;8.60;3.03;;;;;;;;;;12905299;23;20167;-77
2021/05/13 11:16:01;;;;;;;8.00;3.23;;;;;;;;;;12905618;23;20189;-79
2021/05/13 11:21:04;;;;;;;6.53;2.70;;;;;;;;;;12886410;23;20566;-79
2021/05/13 11:26:15;;;;;;;5.70;2.60;;;;;;;;;;12887127;23;20653;-79
2021/05/13 11:31:20;;;;;;;8.53;2.90;;;;;;;;;;12903316;23;20178;-78
2021/05/13 11:36:24;;;;;;;8.60;2.50;;;;;;;;;;12886878;23;20257;-78
2021/05/13 11:41:26;;;;;;;6.07;2.20;;;;;;;;;;12905550;23;20203;-78
2021/05/13 11:46:30;;;;;;;5.00;2.10;;;;;;;;;;12903895;23;20175;-79
2021/05/13 11:51:33;;;;;;;8.40;2.10;;;;;;;;;;12905041;23;20186;-79
2021/05/13 11:56:36;;;;;;;6.50;2.47;;;;;;;;;;12885114;23;20195;-79
2021/05/13 12:01:42;;;;;;;8.03;2.67;;;;;;;;;;12900112;23;20211;-79
2021/05/13 12:06:46;;;;;;;7.17;2.67;;;;;;;;;;12905795;23;20206;-78
2021/05/13 12:11:50;;;;;;;6.20;2.20;;;;;;;;;;12905572;23;20409;-78
2021/05/13 12:16:53;;;;;;;5.20;2.10;;;;;;;;;;12881003;23;20206;-78
2021/05/13 12:21:58;;;;;;;5.53;2.63;;;;;;;;;;12904635;23;20908;-78
2021/05/13 12:27:01;;;;;;;7.77;2.50;;;;;;;;;;12905937;23;20167;-78
2021/05/13 12:32:05;;;;;;;8.27;2.40;;;;;;;;;;12901580;23;20632;-77
2021/05/13 12:37:08;;;;;;;8.10;2.40;;;;;;;;;;12885615;23;20179;-79
2021/05/13 12:42:24;;;;;;;6.77;2.40;;;;;;;;;;12882227;23;20230;-77
2021/05/13 12:47:27;;;;;;;5.83;2.10;;;;;;;;;;12882512;23;20718;-78
2021/05/13 12:52:30;;;;;;;4.00;2.10;;;;;;;;;;12905959;23;20179;-78
2021/05/13 12:57:37;;;;;;;5.03;2.33;;;;;;;;;;12883276;23;20457;-79
2021/05/13 13:02:41;;;;;;;5.77;2.23;;;;;;;;;;12899625;23;20753;-78
2021/05/13 13:07:44;;;;;;;4.93;2.13;;;;;;;;;;12904928;23;20198;-78
2021/05/13 13:13:00;;;;;;;5.43;2.20;;;;;;;;;;12900197;23;20250;-79
2021/05/13 13:18:04;;;;;;;5.20;2.10;;;;;;;;;;12901184;23;20194;-78
2021/05/13 13:23:21;;;;;;;6.53;2.40;;;;;;;;;;12901750;23;20210;-79
2021/05/13 13:28:23;;;;;;;7.40;2.20;;;;;;;;;;12902991;23;20178;-79
2021/05/13 13:33:28;;;;;;;4.03;2.00;;;;;;;;;;12899388;23;20175;-78
2021/05/13 13:38:30;;;;;;;4.83;2.40;;;;;;;;;;12903292;23;20618;-78
2021/05/13 13:43:33;;;;;;;8.40;2.77;;;;;;;;;;12901869;23;20250;-79
2021/05/13 13:48:36;;;;;;;6.17;2.50;;;;;;;;;;12900623;23;20554;-79
2021/05/13 13:53:39;;;;;;;5.43;2.20;;;;;;;;;;12901889;23;20175;-79
2021/05/13 13:58:41;;;;;;;7.40;2.77;;;;;;;;;;12887486;23;20203;-79
2021/05/13 14:03:45;;;;;;;8.07;2.60;;;;;;;;;;12900780;23;20205;-78
2021/05/13 14:08:47;;;;;;;7.17;2.47;;;;;;;;;;12902748;23;20542;-78
2021/05/13 14:13:51;;;;;;;8.17;2.73;;;;;;;;;;12899831;23;20442;-79
2021/05/13 14:18:55;;;;;;;6.50;2.57;;;;;;;;;;12901321;23;20199;-79
2021/05/13 14:23:58;;;;;;;4.97;2.40;;;;;;;;;;12902062;23;20575;-79
2021/05/13 14:29:01;;;;;;;7.77;2.57;;;;;;;;;;12902550;23;20199;-79
2021/05/13 14:34:04;;;;;;;7.10;2.30;;;;;;;;;;12899703;23;20245;-80
2021/05/13 14:39:07;;;;;;;5.73;2.73;;;;;;;;;;12882998;23;20203;-80
2021/05/13 14:44:09;;;;;;;9.27;2.70;;;;;;;;;;12902443;23;20214;-78
2021/05/13 14:49:23;;;;;;;7.83;3.00;;;;;;;;;;12900115;23;20179;-79
2021/05/13 14:54:26;;;;;;;13.13;3.10;;;;;;;;;;12902743;23;20176;-78
2021/05/13 14:59:28;;;;;;;7.90;2.70;;;;;;;;;;12900949;23;20417;-78
2021/05/13 15:04:32;;;;;;;9.37;3.23;;;;;;;;;;12904110;23;20218;-78
2021/05/13 15:09:34;;;;;;;8.43;2.93;;;;;;;;;;12900237;23;20765;-79
2021/05/13 15:14:37;;;;;;;5.37;2.53;;;;;;;;;;12902847;23;20221;-79
2021/05/13 15:19:40;;;;;;;8.03;2.80;;;;;;;;;;12900347;23;20226;-81
2021/05/13 15:24:42;;;;;;;10.70;3.43;;;;;;;;;;12902826;23;20257;-80
2021/05/13 15:29:45;;;;;;;7.00;2.67;;;;;;;;;;12899963;23;20175;-80
2021/05/13 15:34:48;;;;;;;10.93;2.70;;;;;;;;;;12882555;23;20175;-80
2021/05/13 15:39:53;;;;;;;8.83;2.73;;;;;;;;;;12880863;23;20739;-80
2021/05/13 15:44:56;;;;;;;10.90;2.53;;;;;;;;;;12901966;23;20390;-78
2021/05/13 15:50:00;;;;;;;6.30;2.50;;;;;;;;;;12881830;23;20179;-80
2021/05/13 15:55:02;;;;;;;7.13;2.37;;;;;;;;;;12882620;23;20234;-79
2021/05/13 16:00:06;;;;;;;5.70;2.10;;;;;;;;;;12902460;23;20211;-78
2021/05/13 16:05:11;;;;;;;7.20;2.20;;;;;;;;;;12907724;23;20607;-83
2021/05/13 16:10:14;;;;;;;10.90;2.50;;;;;;;;;;12907560;23;20546;-79
2021/05/13 16:15:16;;;;;;;9.37;2.87;;;;;;;;;;12905991;23;20203;-79
2021/05/13 16:20:20;;;;;;;5.87;2.40;;;;;;;;;;12904835;23;20921;-80
2021/05/13 16:25:22;;;;;;;5.90;2.10;;;;;;;;;;12884072;23;20183;-80
2021/05/13 16:30:24;;;;;;;7.13;2.10;;;;;;;;;;12903121;23;20653;-80
2021/05/13 16:35:28;;;;;;;4.47;1.70;;;;;;;;;;12906678;23;20469;-80
2021/05/13 16:40:30;;;;;;;5.83;2.00;;;;;;;;;;12903719;23;20207;-80
2021/05/13 16:45:32;;;;;;;7.10;2.30;;;;;;;;;;12903384;23;20185;-80
2021/05/13 16:50:36;;;;;;;4.97;1.90;;;;;;;;;;12882280;23;20648;-80
2021/05/13 16:55:38;;;;;;;5.23;2.07;;;;;;;;;;12906223;23;20191;-80
2021/05/13 17:00:40;;;;;;;4.50;2.07;;;;;;;;;;12901446;23;20289;-80
2021/05/13 17:05:43;;;;;;;4.57;2.37;;;;;;;;;;12886215;23;20194;-79
2021/05/13 17:10:46;;;;;;;7.33;2.40;;;;;;;;;;12883404;23;20179;-80
2021/05/13 17:15:48;;;;;;;5.87;2.87;;;;;;;;;;12881811;23;20357;-78
2021/05/13 17:20:52;;;;;;;4.77;2.40;;;;;;;;;;12904751;23;20205;-78
2021/05/13 17:25:54;;;;;;;6.33;2.40;;;;;;;;;;12885384;23;20674;-79
2021/05/13 17:30:57;;;;;;;6.47;2.57;;;;;;;;;;12899455;23;20179;-81
2021/05/13 17:36:00;;;;;;;4.80;2.40;;;;;;;;;;12906572;23;20649;-79
2021/05/13 17:41:04;;;;;;;4.43;2.60;;;;;;;;;;12881557;23;20206;-81
2021/05/13 17:46:07;;;;;;;6.07;2.50;;;;;;;;;;12901663;23;20179;-79
2021/05/13 17:51:10;;;;;;;5.50;3.00;;;;;;;;;;12903782;23;20183;-81
2021/05/13 17:56:13;;;;;;;6.10;3.20;;;;;;;;;;12882695;23;20678;-78
2021/05/13 18:01:15;;;;;;;4.60;3.07;;;;;;;;;;12901204;23;20217;-79
2021/05/13 18:06:20;;;;;;;8.10;3.00;;;;;;;;;;12902323;23;20175;-79
2021/05/13 18:11:23;;;;;;;5.47;3.30;;;;;;;;;;12902655;23;20179;-79
2021/05/13 18:16:25;;;;;;;5.60;3.07;;;;;;;;;;12898135;23;20177;-79
2021/05/13 18:21:31;;;;;;;4.67;3.17;;;;;;;;;;12901769;23;20203;-79
2021/05/13 18:26:34;;;;;;;5.87;3.10;;;;;;;;;;12900840;23;20182;-79
2021/05/13 18:31:37;;;;;;;6.07;3.00;;;;;;;;;;12900317;23;20179;-78
2021/05/13 18:36:40;;;;;;;6.60;3.30;;;;;;;;;;12902926;23;20194;-80
2021/05/13 18:41:43;;;;;;;4.83;3.07;;;;;;;;;;12881707;23;20207;-80
2021/05/13 18:46:45;;;;;;;6.13;3.70;;;;;;;;;;12878843;23;20233;-79
2021/05/13 18:51:48;;;;;;;4.43;3.00;;;;;;;;;;12900530;23;20225;-79
2021/05/13 18:56:51;;;;;;;6.53;3.03;;;;;;;;;;12903954;23;20663;-80
2021/05/13 19:01:54;;;;;;;4.40;2.73;;;;;;;;;;12901021;23;20562;-80
2021/05/13 19:06:58;;;;;;;7.90;2.87;;;;;;;;;;12903247;23;20225;-79
2021/05/13 19:12:01;;;;;;;5.63;3.00;;;;;;;;;;12904770;23;20202;-79
2021/05/13 19:17:10;;;;;;;6.17;2.60;;;;;;;;;;12902815;23;20476;-79
2021/05/13 19:22:13;;;;;;;8.10;2.50;;;;;;;;;;12904628;23;20214;-80
2021/05/13 19:27:25;;;;;;;3.57;2.40;;;;;;;;;;12900688;23;20250;-78
2021/05/13 19:37:49;;;;;;;4.83;2.60;;;;;;;;;;12906556;23;20243;-79
2021/05/13 19:42:51;;;;;;;4.43;2.40;;;;;;;;;;12904990;23;20207;-79
2021/05/13 19:47:54;;;;;;;4.43;2.20;;;;;;;;;;12901831;23;20189;-79
2021/05/13 19:52:59;;;;;;;6.00;2.30;;;;;;;;;;12906917;23;20290;-78
2021/05/13 19:58:02;;;;;;;4.53;2.40;;;;;;;;;;12889181;23;20186;-78
2021/05/13 20:03:11;;;;;;;4.60;2.43;;;;;;;;;;12903975;23;20214;-78
2021/05/13 20:08:29;;;;;;;3.97;2.50;;;;;;;;;;12904689;23;20280;-78
2021/05/13 20:13:33;;;;;;;4.80;2.90;;;;;;;;;;12905419;23;20395;-79
2021/05/13 20:18:37;;;;;;;5.57;2.83;;;;;;;;;;12882759;23;20648;-78
2021/05/13 20:23:43;;;;;;;4.30;2.57;;;;;;;;;;12903507;23;20205;-78
2021/05/13 20:28:47;;;;;;;10.40;3.00;;;;;;;;;;12903137;23;20187;-79
2021/05/13 20:33:50;;;;;;;6.20;2.50;;;;;;;;;;12901693;23;20210;-78
2021/05/13 20:38:53;;;;;;;5.10;3.20;;;;;;;;;;12906181;23;20210;-79
2021/05/13 20:43:55;;;;;;;7.77;2.80;;;;;;;;;;12902021;23;20226;-79
2021/05/13 20:48:59;;;;;;;6.70;2.47;;;;;;;;;;12904563;23;20167;-78
2021/05/13 20:59:23;;;;;;;5.43;2.60;;;;;;;;;;12904911;23;20179;-78
2021/05/13 21:04:29;;;;;;;5.33;2.40;;;;;;;;;;12886512;23;20318;-78
2021/05/13 21:09:56;;;;;;;4.87;2.50;;;;;;;;;;12905788;23;20226;-79
2021/05/13 21:15:22;;;;;;;3.73;2.20;;;;;;;;;;12901711;23;20496;-79
2021/05/13 21:20:32;;;;;;;4.83;2.63;;;;;;;;;;12904220;23;20238;-79
2021/05/13 21:25:52;;;;;;;2.77;2.20;;;;;;;;;;12901834;23;20175;-78
2021/05/13 21:30:54;;;;;;;3.30;2.30;;;;;;;;;;12901218;23;20265;-80
2021/05/13 21:35:56;;;;;;;3.77;2.50;;;;;;;;;;12901562;23;20179;-78
2021/05/13 21:41:00;;;;;;;4.00;2.70;;;;;;;;;;12904312;23;20543;-78
2021/05/13 21:46:02;;;;;;;3.40;2.73;;;;;;;;;;12900817;23;20178;-79
2021/05/13 21:51:05;;;;;;;5.47;2.70;;;;;;;;;;12904153;23;20571;-79
2021/05/13 21:56:09;;;;;;;4.37;2.80;;;;;;;;;;12901202;23;20517;-79
2021/05/13 22:01:12;;;;;;;4.90;2.90;;;;;;;;;;12902110;23;20203;-79
2021/05/13 22:06:15;;;;;;;4.07;2.90;;;;;;;;;;12904748;23;20183;-79
2021/05/13 22:11:20;;;;;;;5.63;2.80;;;;;;;;;;12881701;23;20538;-79
2021/05/13 22:16:24;;;;;;;6.70;3.13;;;;;;;;;;12880612;23;20492;-79
2021/05/13 22:21:26;;;;;;;4.50;3.40;;;;;;;;;;12904713;23;20207;-77
2021/05/13 22:26:30;;;;;;;7.90;3.37;;;;;;;;;;12902916;23;20260;-77
2021/05/13 22:31:32;;;;;;;6.63;3.30;;;;;;;;;;12898896;23;20179;-78
2021/05/13 22:36:35;;;;;;;6.10;3.70;;;;;;;;;;12882152;23;20175;-77
2021/05/13 22:41:38;;;;;;;5.70;3.90;;;;;;;;;;12901124;23;20317;-77
2021/05/13 22:46:41;;;;;;;4.87;3.23;;;;;;;;;;12901653;23;20589;-78
2021/05/13 22:51:45;;;;;;;6.37;3.70;;;;;;;;;;12901354;23;20179;-79
2021/05/13 22:56:48;;;;;;;7.80;4.63;;;;;;;;;;12902197;23;20673;-78
2021/05/13 23:01:51;;;;;;;9.40;5.13;;;;;;;;;;12899559;23;20565;-79
2021/05/13 23:06:54;;;;;;;7.40;4.30;;;;;;;;;;12886178;23;20744;-78
2021/05/13 23:11:57;;;;;;;7.50;4.23;;;;;;;;;;12885298;23;20521;-77
2021/05/13 23:17:00;;;;;;;7.83;4.53;;;;;;;;;;12903741;23;20179;-78
2021/05/13 23:22:03;;;;;;;8.50;4.87;;;;;;;;;;12905927;23;20667;-80
2021/05/13 23:27:06;;;;;;;6.93;4.40;;;;;;;;;;12907281;23;20195;-78
2021/05/13 23:32:08;;;;;;;9.20;5.20;;;;;;;;;;12883658;23;20258;-80
2021/05/13 23:37:11;;;;;;;6.73;4.70;;;;;;;;;;12908330;23;20171;-79
2021/05/13 23:42:14;;;;;;;8.47;5.10;;;;;;;;;;12906203;23;20211;-80
2021/05/13 23:47:16;;;;;;;6.83;4.80;;;;;;;;;;12904016;23;20171;-79
2021/05/13 23:52:19;;;;;;;8.90;4.63;;;;;;;;;;12900460;22;20269;-82
2021/05/13 23:57:22;;;;;;;12.63;5.30;;;;;;;;;;12886967;23;20688;-83
